createdAt,value
2018-02-13T00:00:40.076Z,90
2018-02-13T00:01:42.437Z,90
2018-02-13T00:02:44.797Z,90
2018-02-13T00:03:47.163Z,90
2018-02-13T00:04:49.536Z,89.9
2018-02-13T00:05:51.928Z,90
2018-02-13T00:06:54.278Z,90
2018-02-13T00:07:56.631Z,89.9
2018-02-13T00:08:59.271Z,89.8
2018-02-13T00:10:01.653Z,89.8
2018-02-13T00:11:04.004Z,89.8
2018-02-13T00:12:06.376Z,89.7
2018-02-13T00:13:08.741Z,89.6
2018-02-13T00:14:11.390Z,89.7
2018-02-13T00:15:13.754Z,89.7
2018-02-13T00:16:16.126Z,89.5
2018-02-13T00:17:18.775Z,89.7
2018-02-13T00:18:21.151Z,89.6
2018-02-13T00:19:23.524Z,89.1
2018-02-13T00:20:26.170Z,89.2
2018-02-13T00:21:28.814Z,89.4
2018-02-13T00:22:31.472Z,89.6
2018-02-13T00:23:33.835Z,89.6
2018-02-13T00:24:36.215Z,89.6
2018-02-13T00:25:38.569Z,89.7
2018-02-13T00:26:40.944Z,89.7
2018-02-13T00:27:43.584Z,89.5
2018-02-13T00:28:45.949Z,89.5
2018-02-13T00:29:48.308Z,89.5
2018-02-13T00:30:50.681Z,89.4
2018-02-13T00:31:53.040Z,89.4
2018-02-13T00:32:55.452Z,89.4
2018-02-13T00:33:57.791Z,89.5
2018-02-13T00:35:00.161Z,89.4
2018-02-13T00:36:02.534Z,89.4
2018-02-13T00:37:04.905Z,89.5
2018-02-13T00:38:07.266Z,89.5
2018-02-13T00:39:09.635Z,89.4
2018-02-13T00:40:11.994Z,89.4
2018-02-13T00:41:14.642Z,89.4
2018-02-13T00:42:17.012Z,89.3
2018-02-13T00:43:19.364Z,89
2018-02-13T00:44:21.728Z,88.9
2018-02-13T00:45:24.105Z,89.1
2018-02-13T00:46:26.469Z,89.2
2018-02-13T00:47:28.840Z,89.2
2018-02-13T00:48:31.205Z,89.3
2018-02-13T00:49:33.852Z,89.3
2018-02-13T00:50:36.225Z,89.3
2018-02-13T00:51:38.650Z,89.3
2018-02-13T00:52:40.957Z,89.3
2018-02-13T00:53:43.327Z,89.2
2018-02-13T00:54:45.689Z,89.1
2018-02-13T00:55:48.058Z,89
2018-02-13T00:56:50.432Z,89
2018-02-13T00:57:52.782Z,89
2018-02-13T00:58:55.158Z,88.8
2018-02-13T00:59:57.548Z,88.8
2018-02-13T01:00:59.924Z,88.8
2018-02-13T01:02:02.577Z,88.8
2018-02-13T01:03:04.943Z,88.8
2018-02-13T01:04:07.590Z,88.8
2018-02-13T01:05:09.966Z,88.8
2018-02-13T01:06:12.334Z,88.7
2018-02-13T01:07:14.693Z,88.7
2018-02-13T01:08:17.053Z,88.8
2018-02-13T01:09:19.435Z,88.9
2018-02-13T01:10:21.791Z,88.9
2018-02-13T01:11:24.156Z,88.8
2018-02-13T01:12:26.529Z,88.7
2018-02-13T01:13:28.891Z,88.6
2018-02-13T01:14:31.257Z,88.6
2018-02-13T01:15:33.637Z,88.6
2018-02-13T01:16:36.028Z,88.6
2018-02-13T01:17:38.353Z,88.6
2018-02-13T01:18:40.730Z,88.4
2018-02-13T01:19:43.101Z,88.4
2018-02-13T01:20:45.772Z,88.3
2018-02-13T01:21:48.141Z,88.3
2018-02-13T01:22:50.495Z,88.3
2018-02-13T01:23:52.874Z,88.3
2018-02-13T01:24:55.521Z,88.2
2018-02-13T01:25:57.896Z,88.2
2018-02-13T01:27:00.273Z,88.1
2018-02-13T01:28:02.635Z,88
2018-02-13T01:29:05.006Z,87.9
2018-02-13T01:30:07.657Z,88
2018-02-13T01:31:10.315Z,88.1
2018-02-13T01:32:12.962Z,88
2018-02-13T01:33:15.625Z,87.9
2018-02-13T01:34:17.995Z,87.7
2018-02-13T01:35:20.639Z,87.6
2018-02-13T01:36:23.006Z,87.6
2018-02-13T01:37:25.375Z,87.7
2018-02-13T01:38:27.739Z,87.8
2018-02-13T01:39:30.665Z,87.7
2018-02-13T01:40:33.036Z,87.6
2018-02-13T01:41:35.680Z,87.6
2018-02-13T01:42:38.039Z,87.6
2018-02-13T01:43:40.683Z,87.6
2018-02-13T01:44:43.059Z,87.6
2018-02-13T01:45:45.428Z,87.7
2018-02-13T01:46:47.797Z,87.7
2018-02-13T01:47:50.161Z,87.7
2018-02-13T01:48:52.637Z,87.6
2018-02-13T01:49:55.004Z,87.6
2018-02-13T01:50:58.218Z,87.7
2018-02-13T01:52:00.587Z,87.7
2018-02-13T01:53:03.511Z,87.6
2018-02-13T01:54:05.880Z,87.7
2018-02-13T01:55:08.538Z,87.8
2018-02-13T01:56:10.899Z,87.7
2018-02-13T01:57:13.562Z,87.7
2018-02-13T01:58:15.928Z,87.7
2018-02-13T01:59:18.290Z,87.6
2018-02-13T02:00:20.946Z,87.5
2018-02-13T02:01:23.319Z,87.6
2018-02-13T02:02:25.680Z,87.7
2018-02-13T02:03:28.059Z,87.6
2018-02-13T02:04:30.423Z,87.6
2018-02-13T02:05:32.798Z,87.6
2018-02-13T02:06:35.167Z,87.6
2018-02-13T02:07:37.530Z,87.6
2018-02-13T02:08:39.898Z,87.6
2018-02-13T02:09:42.267Z,87.8
2018-02-13T02:10:44.633Z,87.8
2018-02-13T02:11:47.011Z,87.7
2018-02-13T02:12:49.380Z,87.7
2018-02-13T02:13:51.759Z,87.8
2018-02-13T02:14:54.125Z,87.9
2018-02-13T02:15:56.767Z,87.9
2018-02-13T02:16:59.411Z,87.8
2018-02-13T02:18:01.774Z,87.8
2018-02-13T02:19:04.141Z,87.7
2018-02-13T02:20:06.508Z,87.7
2018-02-13T02:21:08.882Z,87.8
2018-02-13T02:22:11.241Z,87.6
2018-02-13T02:23:13.622Z,87.5
2018-02-13T02:24:16.262Z,87.6
2018-02-13T02:25:18.632Z,87.6
2018-02-13T02:26:21.285Z,87.6
2018-02-13T02:27:23.654Z,87.7
2018-02-13T02:28:26.012Z,87.8
2018-02-13T02:29:28.679Z,87.8
2018-02-13T02:30:31.037Z,87.6
2018-02-13T02:31:33.400Z,87.6
2018-02-13T02:32:35.771Z,87.5
2018-02-13T02:33:38.142Z,87.4
2018-02-13T02:34:40.790Z,87.3
2018-02-13T02:35:43.162Z,87.3
2018-02-13T02:36:45.517Z,87.3
2018-02-13T02:37:48.166Z,87.3
2018-02-13T02:38:50.535Z,87.3
2018-02-13T02:39:53.189Z,87.4
2018-02-13T02:40:55.557Z,87.5
2018-02-13T02:41:57.929Z,87.4
2018-02-13T02:43:00.296Z,87.5
2018-02-13T02:44:02.937Z,87.5
2018-02-13T02:45:05.302Z,87.4
2018-02-13T02:46:07.669Z,87.5
2018-02-13T02:47:10.021Z,87.4
2018-02-13T02:48:12.388Z,87.2
2018-02-13T02:49:15.047Z,87.2
2018-02-13T02:50:17.406Z,87.3
2018-02-13T02:51:19.772Z,87.3
2018-02-13T02:52:22.140Z,87.2
2018-02-13T02:53:24.498Z,87.2
2018-02-13T02:54:26.876Z,87.2
2018-02-13T02:55:29.247Z,87.2
2018-02-13T02:56:31.610Z,87.2
2018-02-13T02:57:33.983Z,87
2018-02-13T02:58:36.341Z,87.1
2018-02-13T02:59:38.708Z,87.2
2018-02-13T03:00:41.078Z,87.2
2018-02-13T03:01:43.720Z,87.1
2018-02-13T03:02:46.360Z,87.2
2018-02-13T03:03:48.738Z,87.2
2018-02-13T03:04:51.104Z,87.2
2018-02-13T03:05:53.465Z,87.3
2018-02-13T03:06:56.114Z,87.3
2018-02-13T03:07:58.484Z,87.4
2018-02-13T03:09:00.850Z,87.4
2018-02-13T03:10:03.220Z,87.3
2018-02-13T03:11:05.862Z,87.3
2018-02-13T03:12:08.221Z,87.3
2018-02-13T03:13:10.885Z,87.3
2018-02-13T03:14:13.247Z,87.3
2018-02-13T03:15:15.894Z,87.3
2018-02-13T03:16:18.539Z,87.3
2018-02-13T03:17:20.913Z,87.2
2018-02-13T03:18:23.277Z,87.2
2018-02-13T03:19:25.653Z,87.2
2018-02-13T03:20:28.011Z,87.2
2018-02-13T03:21:30.679Z,87.2
2018-02-13T03:22:33.043Z,87.2
2018-02-13T03:23:35.418Z,87.1
2018-02-13T03:24:37.778Z,87.1
2018-02-13T03:25:40.148Z,87.2
2018-02-13T03:26:42.513Z,87.3
2018-02-13T03:27:44.885Z,87.4
2018-02-13T03:28:47.242Z,87.4
2018-02-13T03:29:49.614Z,87.5
2018-02-13T03:30:52.263Z,87.5
2018-02-13T03:31:54.632Z,87.5
2018-02-13T03:32:56.999Z,87.5
2018-02-13T03:33:59.372Z,87.5
2018-02-13T03:35:01.735Z,87.5
2018-02-13T03:36:04.106Z,87.5
2018-02-13T03:37:06.488Z,87.5
2018-02-13T03:38:08.856Z,87.6
2018-02-13T03:39:11.212Z,87.5
2018-02-13T03:40:13.577Z,87.6
2018-02-13T03:41:16.264Z,87.5
2018-02-13T03:42:18.599Z,87.5
2018-02-13T03:43:20.960Z,87.5
2018-02-13T03:44:23.318Z,87.4
2018-02-13T03:45:25.691Z,87.3
2018-02-13T03:46:28.069Z,87.4
2018-02-13T03:47:30.428Z,87.5
2018-02-13T03:48:33.067Z,87.3
2018-02-13T03:49:35.431Z,87.3
2018-02-13T03:50:37.794Z,87.4
2018-02-13T03:51:40.173Z,87.5
2018-02-13T03:52:42.543Z,87.4
2018-02-13T03:53:44.903Z,87.4
2018-02-13T03:54:47.566Z,87.3
2018-02-13T03:55:49.934Z,87.3
2018-02-13T03:56:52.293Z,87.4
2018-02-13T03:57:55.218Z,87.4
2018-02-13T03:58:57.857Z,87.5
2018-02-13T04:00:00.505Z,87.4
2018-02-13T04:01:02.883Z,87.2
2018-02-13T04:02:05.247Z,87.1
2018-02-13T04:03:07.607Z,87
2018-02-13T04:04:09.981Z,87
2018-02-13T04:05:12.914Z,87
2018-02-13T04:06:15.279Z,86.9
2018-02-13T04:07:17.646Z,87
2018-02-13T04:08:20.018Z,87
2018-02-13T04:09:22.386Z,87.1
2018-02-13T04:10:24.742Z,87.1
2018-02-13T04:11:27.110Z,87.2
2018-02-13T04:12:29.491Z,87.3
2018-02-13T04:13:31.862Z,87.4
2018-02-13T04:14:34.230Z,87.4
2018-02-13T04:15:36.589Z,87.5
2018-02-13T04:16:39.235Z,87.5
2018-02-13T04:17:41.897Z,87.4
2018-02-13T04:18:44.258Z,87.2
2018-02-13T04:19:46.613Z,87.2
2018-02-13T04:20:48.987Z,87.3
2018-02-13T04:21:51.351Z,87.4
2018-02-13T04:22:54.006Z,87.4
2018-02-13T04:23:56.935Z,87.3
2018-02-13T04:24:59.296Z,87.3
2018-02-13T04:26:01.936Z,87.3
2018-02-13T04:27:04.313Z,87.3
2018-02-13T04:28:06.670Z,87.2
2018-02-13T04:29:09.029Z,87.2
2018-02-13T04:30:11.405Z,87.3
2018-02-13T04:31:13.768Z,87.1
2018-02-13T04:32:16.143Z,87.1
2018-02-13T04:33:18.517Z,87.1
2018-02-13T04:34:20.870Z,87
2018-02-13T04:35:23.237Z,86.9
2018-02-13T04:36:25.615Z,87
2018-02-13T04:37:27.976Z,86.9
2018-02-13T04:38:30.341Z,86.9
2018-02-13T04:39:32.988Z,86.8
2018-02-13T04:40:35.352Z,86.9
2018-02-13T04:41:37.993Z,87
2018-02-13T04:42:40.364Z,86.9
2018-02-13T04:43:42.724Z,87
2018-02-13T04:44:45.089Z,87.1
2018-02-13T04:45:47.460Z,87.1
2018-02-13T04:46:49.819Z,87
2018-02-13T04:47:52.461Z,87.2
2018-02-13T04:48:54.883Z,87.2
2018-02-13T04:49:57.245Z,87.1
2018-02-13T04:50:59.619Z,87.2
2018-02-13T04:52:02.257Z,87.2
2018-02-13T04:53:04.625Z,87.2
2018-02-13T04:54:07.264Z,87.2
2018-02-13T04:55:09.907Z,87.1
2018-02-13T04:56:12.267Z,87.1
2018-02-13T04:57:14.636Z,87.1
2018-02-13T04:58:16.993Z,87
2018-02-13T04:59:19.427Z,87
2018-02-13T05:00:21.741Z,87
2018-02-13T05:01:24.105Z,87.1
2018-02-13T05:02:26.755Z,87.2
2018-02-13T05:03:29.122Z,87.2
2018-02-13T05:04:31.480Z,87.2
2018-02-13T05:05:33.843Z,87.2
2018-02-13T05:06:36.495Z,87.2
2018-02-13T05:07:38.876Z,87.2
2018-02-13T05:08:41.241Z,87.3
2018-02-13T05:09:43.600Z,87.3
2018-02-13T05:10:45.973Z,87.4
2018-02-13T05:11:48.615Z,87.4
2018-02-13T05:12:51.013Z,87.2
2018-02-13T05:13:53.353Z,87.2
2018-02-13T05:14:55.709Z,87.2
2018-02-13T05:15:58.069Z,87.1
2018-02-13T05:17:00.727Z,87.1
2018-02-13T05:18:03.089Z,87.3
2018-02-13T05:19:05.728Z,87.4
2018-02-13T05:20:08.091Z,87.4
2018-02-13T05:21:10.451Z,87.5
2018-02-13T05:22:12.829Z,87.4
2018-02-13T05:23:15.192Z,87.3
2018-02-13T05:24:17.543Z,87.2
2018-02-13T05:25:19.915Z,87.3
2018-02-13T05:26:22.294Z,87.5
2018-02-13T05:27:24.662Z,87.5
2018-02-13T05:28:27.076Z,87.5
2018-02-13T05:29:29.382Z,87.6
2018-02-13T05:30:32.030Z,87.6
2018-02-13T05:31:34.399Z,87.6
2018-02-13T05:32:36.763Z,87.6
2018-02-13T05:33:39.109Z,87.7
2018-02-13T05:34:41.473Z,87.7
2018-02-13T05:35:43.853Z,87.6
2018-02-13T05:36:46.202Z,87.6
2018-02-13T05:37:48.571Z,87.6
2018-02-13T05:38:50.943Z,87.6
2018-02-13T05:39:53.597Z,87.6
2018-02-13T05:40:55.944Z,87.6
2018-02-13T05:41:58.317Z,87.4
2018-02-13T05:43:00.688Z,87.4
2018-02-13T05:44:03.329Z,87.4
2018-02-13T05:45:05.694Z,87.3
2018-02-13T05:46:08.332Z,87.3
2018-02-13T05:47:10.693Z,87.4
2018-02-13T05:48:13.067Z,87.4
2018-02-13T05:49:15.705Z,87.4
2018-02-13T05:50:18.078Z,87.3
2018-02-13T05:51:20.436Z,87.3
2018-02-13T05:52:22.798Z,87.2
2018-02-13T05:53:25.446Z,87.2
2018-02-13T05:54:27.820Z,87.2
2018-02-13T05:55:30.179Z,87.2
2018-02-13T05:56:32.549Z,87.2
2018-02-13T05:57:35.191Z,87.2
2018-02-13T05:58:38.136Z,87.2
2018-02-13T05:59:40.509Z,87.2
2018-02-13T06:00:42.882Z,87.3
2018-02-13T06:01:45.243Z,87.2
2018-02-13T06:02:47.608Z,87.2
2018-02-13T06:03:50.005Z,87.2
2018-02-13T06:04:52.329Z,87
2018-02-13T06:05:54.695Z,87
2018-02-13T06:06:57.106Z,86.9
2018-02-13T06:07:59.440Z,86.8
2018-02-13T06:09:02.438Z,86.9
2018-02-13T06:10:05.081Z,87
2018-02-13T06:11:07.437Z,87
2018-02-13T06:12:09.806Z,86.9
2018-02-13T06:13:12.164Z,86.8
2018-02-13T06:14:14.521Z,86.7
2018-02-13T06:15:16.894Z,86.7
2018-02-13T06:16:19.257Z,87
2018-02-13T06:17:21.626Z,87
2018-02-13T06:18:23.989Z,87.1
2018-02-13T06:19:26.913Z,87.2
2018-02-13T06:20:29.285Z,87.2
2018-02-13T06:21:31.657Z,87
2018-02-13T06:22:34.020Z,87
2018-02-13T06:23:36.390Z,87
2018-02-13T06:24:39.025Z,87
2018-02-13T06:25:41.409Z,87
2018-02-13T06:26:43.768Z,87
2018-02-13T06:27:46.128Z,87
2018-02-13T06:28:48.791Z,87.1
2018-02-13T06:29:51.155Z,87.1
2018-02-13T06:30:53.520Z,87.1
2018-02-13T06:31:56.173Z,87.1
2018-02-13T06:32:58.807Z,87.1
2018-02-13T06:34:01.179Z,87.1
2018-02-13T06:35:03.537Z,87.2
2018-02-13T06:36:06.174Z,87.3
2018-02-13T06:37:08.840Z,87.4
2018-02-13T06:38:11.194Z,87.4
2018-02-13T06:39:13.552Z,87.4
2018-02-13T06:40:15.914Z,87.4
2018-02-13T06:41:18.558Z,87.6
2018-02-13T06:42:20.920Z,87.6
2018-02-13T06:43:23.291Z,87.6
2018-02-13T06:44:25.659Z,87.7
2018-02-13T06:45:28.019Z,87.6
2018-02-13T06:46:30.396Z,87.4
2018-02-13T06:47:32.759Z,87.5
2018-02-13T06:48:35.124Z,87.4
2018-02-13T06:49:37.503Z,87.5
2018-02-13T06:50:39.868Z,87.6
2018-02-13T06:51:42.235Z,87.7
2018-02-13T06:52:44.601Z,87.6
2018-02-13T06:53:46.961Z,87.6
2018-02-13T06:54:49.325Z,87.6
2018-02-13T06:55:51.692Z,87.6
2018-02-13T06:56:54.340Z,87.7
2018-02-13T06:57:56.704Z,87.6
2018-02-13T06:58:59.077Z,87.4
2018-02-13T07:00:01.444Z,87.5
2018-02-13T07:01:03.844Z,87.6
2018-02-13T07:02:06.184Z,87.5
2018-02-13T07:03:08.836Z,87.7
2018-02-13T07:04:11.212Z,87.7
2018-02-13T07:05:13.568Z,87.8
2018-02-13T07:06:16.236Z,87.8
2018-02-13T07:07:18.594Z,88
2018-02-13T07:08:20.957Z,88.2
2018-02-13T07:09:23.320Z,88.1
2018-02-13T07:10:25.974Z,88.1
2018-02-13T07:11:28.333Z,88.1
2018-02-13T07:12:30.711Z,87.9
2018-02-13T07:13:33.357Z,87.9
2018-02-13T07:14:35.727Z,88
2018-02-13T07:15:38.094Z,88.1
2018-02-13T07:16:40.491Z,88.2
2018-02-13T07:17:42.827Z,88.3
2018-02-13T07:18:45.191Z,88.2
2018-02-13T07:19:47.834Z,88.2
2018-02-13T07:20:50.475Z,88.4
2018-02-13T07:21:52.832Z,88.4
2018-02-13T07:22:55.510Z,88.6
2018-02-13T07:23:58.156Z,88.6
2018-02-13T07:25:00.522Z,88.6
2018-02-13T07:26:03.175Z,88.5
2018-02-13T07:27:05.821Z,88.5
2018-02-13T07:28:08.191Z,88.5
2018-02-13T07:29:10.570Z,88.3
2018-02-13T07:30:12.934Z,88.3
2018-02-13T07:31:15.291Z,88.5
2018-02-13T07:32:17.667Z,88.7
2018-02-13T07:33:20.033Z,88.6
2018-02-13T07:34:22.387Z,88.5
2018-02-13T07:35:24.758Z,88.5
2018-02-13T07:36:27.129Z,88.8
2018-02-13T07:37:29.480Z,89.3
2018-02-13T07:38:31.844Z,89.3
2018-02-13T07:39:34.218Z,89.9
2018-02-13T07:40:36.862Z,90.3
2018-02-13T07:41:39.231Z,90.5
2018-02-13T07:42:41.907Z,90.7
2018-02-13T07:43:44.237Z,90.8
2018-02-13T07:44:46.615Z,91
2018-02-13T07:45:48.984Z,91.2
2018-02-13T07:46:51.342Z,91.4
2018-02-13T07:47:53.719Z,91.4
2018-02-13T07:48:56.392Z,91.4
2018-02-13T07:49:59.034Z,91.6
2018-02-13T07:51:01.681Z,91.9
2018-02-13T07:52:04.045Z,92
2018-02-13T07:53:06.410Z,92.2
2018-02-13T07:54:08.785Z,92.4
2018-02-13T07:55:11.153Z,92.5
2018-02-13T07:56:13.802Z,92.7
2018-02-13T07:57:16.172Z,92.8
2018-02-13T07:58:18.541Z,92.9
2018-02-13T07:59:20.913Z,93
2018-02-13T08:00:23.272Z,93
2018-02-13T08:01:25.636Z,92.7
2018-02-13T08:02:28.001Z,92.8
2018-02-13T08:03:30.381Z,93
2018-02-13T08:04:32.744Z,93.3
2018-02-13T08:05:35.391Z,93.3
2018-02-13T08:06:37.768Z,93.3
2018-02-13T08:07:40.150Z,93.5
2018-02-13T08:08:42.515Z,93.6
2018-02-13T08:09:45.180Z,93.3
2018-02-13T08:10:47.535Z,93.1
2018-02-13T08:11:49.906Z,92.9
2018-02-13T08:12:52.282Z,92.6
2018-02-13T08:13:55.206Z,92.6
2018-02-13T08:14:57.934Z,92.6
2018-02-13T08:16:00.277Z,92.8
2018-02-13T08:17:02.648Z,92.6
2018-02-13T08:18:05.025Z,92.5
2018-02-13T08:19:07.411Z,92.3
2018-02-13T08:20:10.452Z,92.4
2018-02-13T08:21:12.823Z,92.5
2018-02-13T08:22:15.199Z,92.3
2018-02-13T08:23:17.572Z,92.7
2018-02-13T08:24:19.952Z,93.1
2018-02-13T08:25:22.594Z,93.1
2018-02-13T08:26:24.965Z,92.8
2018-02-13T08:27:27.346Z,93
2018-02-13T08:28:29.714Z,93.4
2018-02-13T08:29:32.083Z,93.7
2018-02-13T08:30:34.455Z,94
2018-02-13T08:31:36.828Z,94.2
2018-02-13T08:32:39.483Z,94.2
2018-02-13T08:33:41.852Z,94
2018-02-13T08:34:44.244Z,93.9
2018-02-13T08:35:46.609Z,94
2018-02-13T08:36:48.987Z,94.1
2018-02-13T08:37:51.364Z,94.2
2018-02-13T08:38:53.743Z,94.3
2018-02-13T08:39:56.115Z,93.8
2018-02-13T08:40:58.486Z,92.9
2018-02-13T08:42:00.853Z,92.2
2018-02-13T08:43:03.227Z,92.3
2018-02-13T08:44:05.877Z,92.9
2018-02-13T08:45:08.249Z,92.8
2018-02-13T08:46:10.619Z,93
2018-02-13T08:47:12.997Z,93.2
2018-02-13T08:48:15.371Z,93.3
2018-02-13T08:49:17.742Z,93.3
2018-02-13T08:50:20.402Z,93
2018-02-13T08:51:23.344Z,93.2
2018-02-13T08:52:25.717Z,93.6
2018-02-13T08:53:28.106Z,93.8
2018-02-13T08:54:30.463Z,93.7
2018-02-13T08:55:32.847Z,93.5
2018-02-13T08:56:35.219Z,93.1
2018-02-13T08:57:37.591Z,92.7
2018-02-13T08:58:39.969Z,92.7
2018-02-13T08:59:42.629Z,93.2
2018-02-13T09:00:44.995Z,93.4
2018-02-13T09:01:47.389Z,93
2018-02-13T09:02:49.748Z,92.9
2018-02-13T09:03:52.138Z,92.7
2018-02-13T09:04:54.510Z,92.1
2018-02-13T09:05:57.180Z,91.9
2018-02-13T09:06:59.833Z,91.8
2018-02-13T09:08:02.497Z,92.1
2018-02-13T09:09:04.864Z,92.7
2018-02-13T09:10:07.247Z,93
2018-02-13T09:11:09.910Z,93.2
2018-02-13T09:12:12.562Z,93
2018-02-13T09:13:14.944Z,93.2
2018-02-13T09:14:17.326Z,92.7
2018-02-13T09:15:19.698Z,92.6
2018-02-13T09:16:22.365Z,92.9
2018-02-13T09:17:24.730Z,92.2
2018-02-13T09:18:27.118Z,92.1
2018-02-13T09:19:29.492Z,91.8
2018-02-13T09:20:31.876Z,91.8
2018-02-13T09:21:34.256Z,92.1
2018-02-13T09:22:36.640Z,92.2
2018-02-13T09:23:39.011Z,92.2
2018-02-13T09:24:41.396Z,93
2018-02-13T09:25:43.759Z,93.3
2018-02-13T09:26:46.695Z,93.6
2018-02-13T09:27:49.069Z,93.6
2018-02-13T09:28:51.442Z,93.5
2018-02-13T09:29:53.822Z,93.5
2018-02-13T09:30:56.204Z,93.5
2018-02-13T09:31:58.582Z,92.9
2018-02-13T09:33:00.962Z,92.8
2018-02-13T09:34:03.614Z,92.9
2018-02-13T09:35:05.984Z,93
2018-02-13T09:36:08.379Z,93.5
2018-02-13T09:37:11.040Z,94
2018-02-13T09:38:13.411Z,94.2
2018-02-13T09:39:15.790Z,94.3
2018-02-13T09:40:18.223Z,93.6
2018-02-13T09:41:20.559Z,93.1
2018-02-13T09:42:22.940Z,93
2018-02-13T09:43:25.319Z,93
2018-02-13T09:44:27.696Z,92.8
2018-02-13T09:45:30.086Z,92.7
2018-02-13T09:46:32.466Z,93.1
2018-02-13T09:47:34.855Z,92.4
2018-02-13T09:48:37.228Z,91.9
2018-02-13T09:49:39.609Z,91.5
2018-02-13T09:50:42.000Z,91
2018-02-13T09:51:44.385Z,91.1
2018-02-13T09:52:46.763Z,91.2
2018-02-13T09:53:49.141Z,91
2018-02-13T09:54:51.522Z,90.6
2018-02-13T09:55:53.903Z,90.6
2018-02-13T09:56:56.566Z,90.9
2018-02-13T09:57:59.219Z,90.8
2018-02-13T09:59:01.598Z,90.9
2018-02-13T10:00:03.989Z,91.5
2018-02-13T10:01:06.375Z,91.8
2018-02-13T10:02:08.741Z,91.6
2018-02-13T10:03:11.132Z,92.2
2018-02-13T10:04:13.508Z,92.2
2018-02-13T10:05:15.890Z,92.4
2018-02-13T10:06:18.268Z,92.7
2018-02-13T10:07:20.929Z,92.3
2018-02-13T10:08:23.594Z,91.7
2018-02-13T10:09:25.981Z,91.4
2018-02-13T10:10:28.646Z,91.4
2018-02-13T10:11:31.026Z,91.5
2018-02-13T10:12:33.410Z,91.8
2018-02-13T10:13:35.788Z,91.2
2018-02-13T10:14:38.167Z,90.2
2018-02-13T10:15:40.550Z,90.4
2018-02-13T10:16:42.923Z,90.6
2018-02-13T10:17:45.328Z,90.7
2018-02-13T10:18:48.029Z,90.9
2018-02-13T10:19:50.404Z,91.1
2018-02-13T10:20:52.788Z,91.2
2018-02-13T10:21:55.167Z,91.1
2018-02-13T10:22:57.537Z,91.1
2018-02-13T10:23:59.933Z,91.5
2018-02-13T10:25:02.313Z,91.6
2018-02-13T10:26:04.987Z,91.7
2018-02-13T10:27:07.378Z,91.5
2018-02-13T10:28:10.028Z,91.6
2018-02-13T10:29:12.408Z,92
2018-02-13T10:30:14.789Z,92.4
2018-02-13T10:31:17.174Z,92.5
2018-02-13T10:32:19.555Z,92.6
2018-02-13T10:33:22.203Z,92.6
2018-02-13T10:34:24.591Z,91.8
2018-02-13T10:35:26.967Z,91
2018-02-13T10:36:29.354Z,91
2018-02-13T10:37:31.737Z,90.4
2018-02-13T10:38:34.169Z,90.4
2018-02-13T10:39:36.498Z,91.1
2018-02-13T10:40:39.172Z,90.7
2018-02-13T10:41:41.544Z,90.4
2018-02-13T10:42:43.931Z,90.5
2018-02-13T10:43:46.307Z,90.4
2018-02-13T10:44:48.694Z,90.7
2018-02-13T10:45:51.367Z,90.4
2018-02-13T10:46:53.760Z,90.3
2018-02-13T10:47:56.126Z,90.2
2018-02-13T10:48:58.791Z,90.3
2018-02-13T10:50:01.170Z,90.7
2018-02-13T10:51:03.559Z,90.7
2018-02-13T10:52:05.932Z,90.5
2018-02-13T10:53:08.601Z,90.2
2018-02-13T10:54:10.985Z,90.5
2018-02-13T10:55:13.660Z,90.8
2018-02-13T10:56:16.326Z,91.2
2018-02-13T10:57:19.010Z,91.5
2018-02-13T10:58:21.387Z,91.6
2018-02-13T10:59:23.774Z,91.6
2018-02-13T11:00:26.150Z,91.5
2018-02-13T11:01:28.535Z,91.2
2018-02-13T11:02:30.916Z,91.4
2018-02-13T11:03:33.303Z,91.4
2018-02-13T11:04:35.693Z,91.4
2018-02-13T11:05:38.083Z,91.2
2018-02-13T11:06:40.463Z,90.5
2018-02-13T11:07:42.853Z,91
2018-02-13T11:08:45.244Z,91.3
2018-02-13T11:09:47.623Z,91.6
2018-02-13T11:10:50.000Z,91.8
2018-02-13T11:11:52.388Z,91.8
2018-02-13T11:12:54.776Z,91.3
2018-02-13T11:13:57.160Z,91
2018-02-13T11:14:59.532Z,90.7
2018-02-13T11:16:01.923Z,90.7
2018-02-13T11:17:04.302Z,90.8
2018-02-13T11:18:06.683Z,91.2
2018-02-13T11:19:09.072Z,91.3
2018-02-13T11:20:11.458Z,91.2
2018-02-13T11:21:13.833Z,91
2018-02-13T11:22:16.857Z,90.9
2018-02-13T11:23:19.248Z,90.7
2018-02-13T11:24:21.630Z,90.8
2018-02-13T11:25:24.028Z,90.8
2018-02-13T11:26:26.406Z,90.4
2018-02-13T11:27:28.793Z,90.3
2018-02-13T11:28:31.182Z,90
2018-02-13T11:29:33.562Z,89.6
2018-02-13T11:30:35.937Z,89.3
2018-02-13T11:31:38.333Z,90.3
2018-02-13T11:32:40.709Z,90.7
2018-02-13T11:33:43.098Z,90.6
2018-02-13T11:34:45.762Z,90.4
2018-02-13T11:35:48.148Z,90.3
2018-02-13T11:36:50.525Z,90.5
2018-02-13T11:37:52.918Z,90.3
2018-02-13T11:38:55.570Z,89.7
2018-02-13T11:39:58.227Z,89.8
2018-02-13T11:41:00.606Z,90.2
2018-02-13T11:42:02.999Z,90.2
2018-02-13T11:43:05.387Z,90.1
2018-02-13T11:44:07.776Z,90.1
2018-02-13T11:45:10.149Z,89.1
2018-02-13T11:46:12.534Z,88.1
2018-02-13T11:47:14.919Z,87.6
2018-02-13T11:48:17.310Z,88.2
2018-02-13T11:49:19.689Z,88
2018-02-13T11:50:22.076Z,87.7
2018-02-13T11:51:24.736Z,86.5
2018-02-13T11:52:27.122Z,88.1
2018-02-13T11:53:29.504Z,89
2018-02-13T11:54:31.886Z,88.2
2018-02-13T11:55:34.543Z,88.8
2018-02-13T11:56:36.938Z,88.9
2018-02-13T11:57:39.313Z,89.5
2018-02-13T11:58:41.691Z,89.9
2018-02-13T11:59:44.081Z,90.1
2018-02-13T12:00:46.467Z,90.4
2018-02-13T12:01:48.847Z,90.5
2018-02-13T12:02:51.532Z,90.4
2018-02-13T12:03:53.912Z,90.2
2018-02-13T12:04:56.295Z,90.4
2018-02-13T12:05:58.664Z,90.8
2018-02-13T12:07:01.063Z,90.8
2018-02-13T12:08:03.438Z,90.8
2018-02-13T12:09:05.829Z,90.9
2018-02-13T12:10:08.205Z,90.2
2018-02-13T12:11:10.588Z,89.6
2018-02-13T12:12:12.970Z,90.2
2018-02-13T12:13:15.364Z,90.4
2018-02-13T12:14:17.739Z,90.2
2018-02-13T12:15:20.118Z,90.7
2018-02-13T12:16:22.786Z,91.1
2018-02-13T12:17:25.173Z,91.5
2018-02-13T12:18:27.834Z,91.6
2018-02-13T12:19:30.221Z,91.5
2018-02-13T12:20:32.589Z,91.3
2018-02-13T12:21:34.980Z,91.2
2018-02-13T12:22:37.366Z,91.1
2018-02-13T12:23:39.745Z,91.5
2018-02-13T12:24:42.131Z,91.7
2018-02-13T12:25:44.515Z,91.3
2018-02-13T12:26:46.899Z,91.2
2018-02-13T12:27:49.298Z,91.3
2018-02-13T12:28:51.685Z,91.5
2018-02-13T12:29:54.066Z,91.6
2018-02-13T12:30:56.446Z,91.8
2018-02-13T12:31:59.125Z,91.6
2018-02-13T12:33:01.511Z,91.1
2018-02-13T12:34:03.892Z,90.7
2018-02-13T12:35:06.277Z,90
2018-02-13T12:36:08.653Z,89.3
2018-02-13T12:37:11.043Z,90
2018-02-13T12:38:13.442Z,90.4
2018-02-13T12:39:15.811Z,90.8
2018-02-13T12:40:18.202Z,90.2
2018-02-13T12:41:20.585Z,90.3
2018-02-13T12:42:22.972Z,89.8
2018-02-13T12:43:25.358Z,88.7
2018-02-13T12:44:27.732Z,89.1
2018-02-13T12:45:30.119Z,88.4
2018-02-13T12:46:32.510Z,87.5
2018-02-13T12:47:34.895Z,87.9
2018-02-13T12:48:37.284Z,87.6
2018-02-13T12:49:39.664Z,88.6
2018-02-13T12:50:42.044Z,89.9
2018-02-13T12:51:44.434Z,90
2018-02-13T12:52:46.817Z,90
2018-02-13T12:53:49.188Z,90
2018-02-13T12:54:51.577Z,90
2018-02-13T12:55:53.962Z,89.7
2018-02-13T12:56:56.353Z,90
2018-02-13T12:57:58.740Z,89.9
2018-02-13T12:59:01.132Z,89.1
2018-02-13T13:00:03.563Z,89.3
2018-02-13T13:01:05.898Z,89.3
2018-02-13T13:02:08.283Z,89.6
2018-02-13T13:03:10.662Z,86.6
2018-02-13T13:04:13.049Z,86.5
2018-02-13T13:05:15.431Z,86
2018-02-13T13:06:17.806Z,86.2
2018-02-13T13:07:20.193Z,85.6
2018-02-13T13:08:22.586Z,85.8
2018-02-13T13:09:24.968Z,85
2018-02-13T13:10:27.355Z,85.9
2018-02-13T13:11:30.018Z,86.3
2018-02-13T13:12:32.687Z,86.3
2018-02-13T13:13:35.067Z,87.6
2018-02-13T13:14:37.741Z,88.4
2018-02-13T13:15:40.126Z,88
2018-02-13T13:16:42.513Z,87.9
2018-02-13T13:17:45.174Z,87.2
2018-02-13T13:18:47.580Z,86.4
2018-02-13T13:19:49.950Z,86.5
2018-02-13T13:20:52.343Z,86.1
2018-02-13T13:21:54.721Z,86.4
2018-02-13T13:22:57.112Z,86.6
2018-02-13T13:23:59.502Z,87.3
2018-02-13T13:25:01.887Z,87.5
2018-02-13T13:26:04.272Z,86.8
2018-02-13T13:27:06.662Z,84.7
2018-02-13T13:28:09.045Z,85.8
2018-02-13T13:29:11.428Z,87.3
2018-02-13T13:30:13.807Z,88.1
2018-02-13T13:31:16.468Z,87.8
2018-02-13T13:32:18.841Z,88.1
2018-02-13T13:33:21.226Z,87.3
2018-02-13T13:34:23.615Z,86.5
2018-02-13T13:35:25.992Z,86.7
2018-02-13T13:36:28.386Z,87.1
2018-02-13T13:37:30.779Z,87.7
2018-02-13T13:38:33.169Z,87.6
2018-02-13T13:39:35.556Z,87.3
2018-02-13T13:40:37.935Z,86.8
2018-02-13T13:41:40.319Z,86.5
2018-02-13T13:42:42.983Z,86.8
2018-02-13T13:43:45.363Z,86.7
2018-02-13T13:44:47.742Z,85.6
2018-02-13T13:45:50.141Z,84.3
2018-02-13T13:46:52.522Z,82.8
2018-02-13T13:47:54.899Z,83.1
2018-02-13T13:48:57.283Z,83.7
2018-02-13T13:49:59.665Z,83.9
2018-02-13T13:51:02.050Z,83.2
2018-02-13T13:52:04.441Z,83.4
2018-02-13T13:53:06.818Z,84.1
2018-02-13T13:54:09.192Z,84.1
2018-02-13T13:55:11.582Z,84.6
2018-02-13T13:56:13.960Z,83.8